createdAt,value
2022-09-12T00:02:04.837Z,58.39
2022-09-12T00:04:33.124Z,58.37
2022-09-12T00:07:01.256Z,58.55
2022-09-12T00:09:29.103Z,58.83
2022-09-12T00:11:57.329Z,58.46
2022-09-12T00:14:25.113Z,58.28
2022-09-12T00:16:55.154Z,58.59
2022-09-12T00:19:23.401Z,58.79
2022-09-12T00:21:51.163Z,58.95
2022-09-12T00:24:19.383Z,58.99
2022-09-12T00:26:47.949Z,58.92
2022-09-12T00:29:17.673Z,59.00
2022-09-12T00:31:46.160Z,58.79
2022-09-12T00:34:16.444Z,59.04
2022-09-12T00:36:44.234Z,59.20
2022-09-12T00:39:17.094Z,59.17
2022-09-12T00:41:45.900Z,59.07
2022-09-12T00:44:46.734Z,58.91
2022-09-12T00:47:20.521Z,59.20
2022-09-12T00:49:54.905Z,59.18
2022-09-12T00:52:28.023Z,59.09
2022-09-12T00:55:02.382Z,59.24
2022-09-12T00:57:34.427Z,59.01
2022-09-12T01:00:10.378Z,59.14
2022-09-12T01:02:38.568Z,59.22
2022-09-12T01:05:10.036Z,59.27
2022-09-12T01:07:40.228Z,59.14
2022-09-12T01:10:10.562Z,59.19
2022-09-12T01:12:41.706Z,58.90
2022-09-12T01:15:10.340Z,59.16
2022-09-12T01:17:52.856Z,58.94
2022-09-12T01:20:51.970Z,59.01
2022-09-12T01:23:59.918Z,59.03
2022-09-12T01:26:59.106Z,59.30
2022-09-12T01:29:50.433Z,58.92
2022-09-12T01:32:27.449Z,59.17
2022-09-12T01:35:05.464Z,59.35
2022-09-12T01:37:42.195Z,59.32
2022-09-12T01:40:16.651Z,59.58
2022-09-12T01:42:52.580Z,59.44
2022-09-12T01:45:29.674Z,59.64
2022-09-12T01:48:04.569Z,59.39
2022-09-12T01:50:35.500Z,59.53
2022-09-12T01:53:08.787Z,59.34
2022-09-12T01:55:43.697Z,59.23
2022-09-12T01:58:17.660Z,59.37
2022-09-12T02:00:53.086Z,59.49
2022-09-12T02:03:25.544Z,59.16
2022-09-12T02:05:57.909Z,59.36
2022-09-12T02:08:31.213Z,59.33
2022-09-12T02:11:05.342Z,59.73
2022-09-12T02:13:36.003Z,59.93
2022-09-12T02:16:11.064Z,59.57
2022-09-12T02:18:45.793Z,59.62
2022-09-12T02:21:15.584Z,59.67
2022-09-12T02:23:49.832Z,59.67
2022-09-12T02:26:23.049Z,60.00
2022-09-12T02:28:51.601Z,59.88
2022-09-12T02:31:27.593Z,59.95
2022-09-12T02:34:09.406Z,59.90
2022-09-12T02:36:51.471Z,59.82
2022-09-12T02:39:21.172Z,59.74
2022-09-12T02:41:52.294Z,59.72
2022-09-12T02:44:21.166Z,59.93
2022-09-12T02:46:53.204Z,59.78
2022-09-12T02:49:22.715Z,59.77
2022-09-12T02:51:51.226Z,59.67
2022-09-12T02:54:20.696Z,59.74
2022-09-12T02:56:49.022Z,59.74
2022-09-12T02:59:21.454Z,59.97
2022-09-12T03:02:05.143Z,59.87
2022-09-12T03:04:55.996Z,59.92
2022-09-12T03:07:43.877Z,59.80
2022-09-12T03:10:21.703Z,59.98
2022-09-12T03:12:59.911Z,59.94
2022-09-12T03:15:41.560Z,59.84
2022-09-12T03:18:23.453Z,59.79
2022-09-12T03:21:03.605Z,60.05
2022-09-12T03:23:36.279Z,60.07
2022-09-12T03:26:12.446Z,60.05
2022-09-12T03:28:42.363Z,59.87
2022-09-12T03:31:15.609Z,59.77
2022-09-12T03:33:44.429Z,59.72
2022-09-12T03:36:18.413Z,60.04
2022-09-12T03:38:46.745Z,59.94
2022-09-12T03:41:14.693Z,60.27
2022-09-12T03:43:43.344Z,60.12
2022-09-12T03:46:11.644Z,60.24
2022-09-12T03:48:39.713Z,60.11
2022-09-12T03:51:10.386Z,60.38
2022-09-12T03:53:40.090Z,60.16
2022-09-12T03:56:09.158Z,60.30
2022-09-12T03:58:38.721Z,60.11
2022-09-12T04:01:12.948Z,60.21
2022-09-12T04:03:41.718Z,60.16
2022-09-12T04:06:11.678Z,60.66
2022-09-12T04:08:40.894Z,60.14
2022-09-12T04:11:12.308Z,60.30
2022-09-12T04:13:41.629Z,60.41
2022-09-12T04:16:10.158Z,60.44
2022-09-12T04:18:38.756Z,60.24
2022-09-12T04:21:08.101Z,60.63
2022-09-12T04:23:36.386Z,60.30
2022-09-12T04:26:07.872Z,60.44
2022-09-12T04:28:37.266Z,60.39
2022-09-12T04:31:07.923Z,60.52
2022-09-12T04:33:36.004Z,60.56
2022-09-12T04:36:08.162Z,60.71
2022-09-12T04:38:37.336Z,60.77
2022-09-12T04:41:13.783Z,60.68
2022-09-12T04:43:42.581Z,60.72
2022-09-12T04:46:12.199Z,60.67
2022-09-12T04:48:40.998Z,60.83
2022-09-12T04:51:10.821Z,60.67
2022-09-12T04:53:39.117Z,60.51
2022-09-12T04:56:08.962Z,60.55
2022-09-12T04:58:39.219Z,61.07
2022-09-12T05:01:09.177Z,60.97
2022-09-12T05:03:39.573Z,60.84
2022-09-12T05:06:10.066Z,60.84
2022-09-12T05:08:38.380Z,60.94
2022-09-12T05:11:07.873Z,60.82
2022-09-12T05:13:35.986Z,60.97
2022-09-12T05:16:07.196Z,60.82
2022-09-12T05:18:36.791Z,60.68
2022-09-12T05:21:06.886Z,60.83
2022-09-12T05:23:35.045Z,60.91
2022-09-12T05:26:04.663Z,60.69
2022-09-12T05:28:34.551Z,60.73
2022-09-12T05:31:04.082Z,60.74
2022-09-12T05:33:34.859Z,60.63
2022-09-12T05:36:03.173Z,61.08
2022-09-12T05:38:31.392Z,60.93
2022-09-12T05:41:04.816Z,60.88
2022-09-12T05:43:33.174Z,61.04
2022-09-12T05:46:04.413Z,61.16
2022-09-12T05:48:34.786Z,61.14
2022-09-12T05:51:23.469Z,61.03
2022-09-12T05:53:53.729Z,61.17
2022-09-12T05:56:24.674Z,61.18
2022-09-12T05:58:55.242Z,61.05
2022-09-12T06:01:24.488Z,61.04
2022-09-12T06:03:55.402Z,61.32
2022-09-12T06:06:25.861Z,61.38
2022-09-12T06:08:55.873Z,61.43
2022-09-12T06:11:26.160Z,61.82
2022-09-12T06:13:54.814Z,61.59
2022-09-12T06:16:26.373Z,62.71
2022-09-12T06:18:57.295Z,62.71
2022-09-12T06:21:26.961Z,63.20
2022-09-12T06:23:56.736Z,63.64
2022-09-12T06:26:25.753Z,64.16
2022-09-12T06:28:55.283Z,64.46
2022-09-12T06:31:26.727Z,64.73
2022-09-12T06:33:57.698Z,64.73
2022-09-12T06:36:27.954Z,65.09
2022-09-12T06:38:57.284Z,65.55
2022-09-12T06:41:27.228Z,65.53
2022-09-12T06:43:55.486Z,65.67
2022-09-12T06:46:24.063Z,65.80
2022-09-12T06:48:51.886Z,66.04
2022-09-12T06:51:21.467Z,66.47
2022-09-12T06:53:50.842Z,66.01
2022-09-12T06:56:21.057Z,65.93
2022-09-12T06:58:50.287Z,65.75
2022-09-12T07:01:20.786Z,65.63
2022-09-12T07:03:50.138Z,65.36
2022-09-12T07:06:20.244Z,65.07
2022-09-12T07:08:49.649Z,65.30
2022-09-12T07:11:20.431Z,64.60
2022-09-12T07:13:50.739Z,64.45
2022-09-12T07:16:20.269Z,64.17
2022-09-12T07:18:52.307Z,63.94
2022-09-12T07:21:20.988Z,63.96
2022-09-12T07:23:51.828Z,63.79
2022-09-12T07:26:20.238Z,63.40
2022-09-12T07:28:52.670Z,62.56
2022-09-12T07:31:21.569Z,62.36
2022-09-12T07:33:54.423Z,62.41
2022-09-12T07:36:25.420Z,61.69
2022-09-12T07:38:58.951Z,61.49
2022-09-12T07:41:28.453Z,61.22
2022-09-12T07:43:57.769Z,61.10
2022-09-12T07:46:27.372Z,61.39
2022-09-12T07:48:56.876Z,61.04
2022-09-12T07:51:25.804Z,61.18
2022-09-12T07:56:41.981Z,60.42
2022-09-12T07:59:10.717Z,59.77
2022-09-12T08:01:39.881Z,59.54
2022-09-12T08:04:07.643Z,59.42
2022-09-12T08:06:36.426Z,58.68
2022-09-12T08:09:04.886Z,57.73
2022-09-12T08:11:33.503Z,57.70
2022-09-12T08:14:03.129Z,57.39
2022-09-12T08:16:32.199Z,57.11
2022-09-12T08:19:02.217Z,56.64
2022-09-12T08:21:31.906Z,56.55
2022-09-12T08:24:02.361Z,56.56
2022-09-12T08:26:31.161Z,56.71
2022-09-12T08:28:58.902Z,56.88
2022-09-12T08:31:29.620Z,56.52
2022-09-12T08:33:58.278Z,56.56
2022-09-12T08:36:28.547Z,56.43
2022-09-12T08:38:59.944Z,56.40
2022-09-12T08:41:31.797Z,56.15
2022-09-12T08:44:20.244Z,56.97
2022-09-12T08:47:08.192Z,56.54
2022-09-12T08:49:40.884Z,56.22
2022-09-12T08:52:17.008Z,56.02
2022-09-12T08:54:45.932Z,55.93
2022-09-12T08:57:16.155Z,55.72
2022-09-12T08:59:46.647Z,54.94
2022-09-12T09:02:34.473Z,55.60
2022-09-12T09:05:12.540Z,54.32
2022-09-12T09:08:08.793Z,54.46
2022-09-12T09:10:48.355Z,54.16
2022-09-12T09:13:41.223Z,53.72
2022-09-12T09:16:18.299Z,54.16
2022-09-12T09:18:49.458Z,52.64
2022-09-12T09:21:25.190Z,52.85
2022-09-12T09:24:00.466Z,52.69
2022-09-12T09:26:30.469Z,54.20
2022-09-12T09:29:03.396Z,51.78
2022-09-12T09:31:37.855Z,51.94
2022-09-12T09:34:15.414Z,52.14
2022-09-12T09:36:52.579Z,51.30
2022-09-12T09:39:43.338Z,51.91
2022-09-12T09:42:25.737Z,50.73
2022-09-12T09:44:57.006Z,50.57
2022-09-12T09:47:25.223Z,52.02
2022-09-12T09:49:54.316Z,51.21
2022-09-12T09:52:28.052Z,50.96
2022-09-12T09:54:58.891Z,51.05
2022-09-12T09:57:52.740Z,52.08
2022-09-12T10:00:34.191Z,50.59
2022-09-12T10:03:29.878Z,50.39
2022-09-12T10:06:02.071Z,50.10
2022-09-12T10:08:32.192Z,49.21
2022-09-12T10:11:03.219Z,48.38
2022-09-12T10:13:38.098Z,49.04
2022-09-12T10:16:08.338Z,48.83
2022-09-12T10:18:42.471Z,48.39
2022-09-12T10:21:25.865Z,48.28
2022-09-12T10:24:01.137Z,48.65
2022-09-12T10:26:34.739Z,47.82
2022-09-12T10:29:11.324Z,46.97
2022-09-12T10:31:47.220Z,46.95
2022-09-12T10:34:32.468Z,47.53
2022-09-12T10:37:07.736Z,46.38
2022-09-12T10:39:39.144Z,47.24
2022-09-12T10:42:07.278Z,46.15
2022-09-12T10:44:36.301Z,46.19
2022-09-12T10:47:23.371Z,47.00
2022-09-12T10:49:51.271Z,45.63
2022-09-12T10:52:24.311Z,45.94
2022-09-12T10:54:52.398Z,45.63
2022-09-12T10:57:54.536Z,46.99
2022-09-12T11:00:28.009Z,45.58
2022-09-12T11:03:04.979Z,45.21
2022-09-12T11:05:52.600Z,45.82
2022-09-12T11:08:59.789Z,45.19
2022-09-12T11:11:50.269Z,45.51
2022-09-12T11:14:39.049Z,45.67
2022-09-12T11:17:20.041Z,43.97
2022-09-12T11:20:26.614Z,45.11
2022-09-12T11:23:29.165Z,44.78
2022-09-12T11:26:06.091Z,43.99
2022-09-12T11:28:51.011Z,43.75
2022-09-12T11:31:41.125Z,43.34
2022-09-12T11:34:11.363Z,42.54
2022-09-12T11:36:49.322Z,43.14
2022-09-12T11:39:18.980Z,42.51
2022-09-12T11:41:53.688Z,43.05
2022-09-12T11:44:25.496Z,42.74
2022-09-12T11:46:53.244Z,42.57
2022-09-12T11:49:35.249Z,43.28
2022-09-12T11:52:08.148Z,43.31
2022-09-12T11:54:43.246Z,41.93
2022-09-12T11:57:17.865Z,43.74
2022-09-12T11:59:50.993Z,41.58
2022-09-12T12:02:26.505Z,41.18
2022-09-12T12:05:05.092Z,41.89
2022-09-12T12:07:45.367Z,41.74
2022-09-12T12:10:31.052Z,41.30
2022-09-12T12:13:02.005Z,41.53
2022-09-12T12:15:31.921Z,40.64
2022-09-12T12:18:08.890Z,41.37
2022-09-12T12:20:37.631Z,40.43
2022-09-12T12:23:05.677Z,40.71
2022-09-12T12:25:43.142Z,40.62
2022-09-12T12:28:12.278Z,40.93
2022-09-12T12:31:05.869Z,40.82
2022-09-12T12:34:16.328Z,40.75
2022-09-12T12:36:44.765Z,40.56
2022-09-12T12:40:05.670Z,41.60
2022-09-12T12:43:05.699Z,40.91
2022-09-12T12:46:12.928Z,41.23
2022-09-12T12:49:04.519Z,40.46
2022-09-12T12:51:37.614Z,40.88
2022-09-12T12:54:13.121Z,40.48
2022-09-12T12:56:43.102Z,40.06
2022-09-12T12:59:19.123Z,40.67
2022-09-12T13:01:54.950Z,40.57
2022-09-12T13:04:27.079Z,39.29
2022-09-12T13:07:07.634Z,39.33
2022-09-12T13:09:40.610Z,40.55
2022-09-12T13:12:12.440Z,39.90
2022-09-12T13:14:54.014Z,39.84
2022-09-12T13:17:29.331Z,39.78
2022-09-12T13:20:27.220Z,39.71
2022-09-12T13:22:56.232Z,39.67
2022-09-12T13:25:27.889Z,39.84
2022-09-12T13:28:00.573Z,39.55
2022-09-12T13:30:29.852Z,39.62
2022-09-12T13:33:03.095Z,39.42
2022-09-12T13:35:41.376Z,39.81
2022-09-12T13:38:18.397Z,39.28
2022-09-12T13:41:04.417Z,39.84
2022-09-12T13:43:39.030Z,39.23
2022-09-12T13:46:09.147Z,39.37
2022-09-12T13:48:37.198Z,38.84
2022-09-12T13:51:06.829Z,38.82
2022-09-12T13:53:43.710Z,39.25
2022-09-12T13:56:17.740Z,39.01
2022-09-12T13:58:54.454Z,39.59
2022-09-12T14:01:22.934Z,38.89
2022-09-12T14:04:10.227Z,38.92
2022-09-12T14:06:48.120Z,38.61
2022-09-12T14:09:23.019Z,38.44
2022-09-12T14:11:53.747Z,38.17
2022-09-12T14:14:31.828Z,38.33
2022-09-12T14:17:00.178Z,38.76
2022-09-12T14:19:29.193Z,38.63
2022-09-12T14:21:59.553Z,38.39
2022-09-12T14:24:27.676Z,38.01
2022-09-12T14:26:57.791Z,38.44
2022-09-12T14:29:26.819Z,39.26
2022-09-12T14:32:02.858Z,39.03
2022-09-12T14:34:31.518Z,38.72
2022-09-12T14:37:00.863Z,38.00
2022-09-12T14:39:33.855Z,38.61
2022-09-12T14:42:05.259Z,38.05
2022-09-12T14:44:34.982Z,38.10
2022-09-12T14:47:13.984Z,38.22
2022-09-12T14:49:43.355Z,37.51
2022-09-12T14:52:40.088Z,38.33
2022-09-12T14:55:22.784Z,38.32
2022-09-12T14:58:13.150Z,38.31
2022-09-12T15:00:54.363Z,38.35
2022-09-12T15:03:27.106Z,37.15
2022-09-12T15:05:55.720Z,37.20
2022-09-12T15:08:25.812Z,37.42
2022-09-12T15:10:53.936Z,37.79
2022-09-12T15:13:24.008Z,38.02
2022-09-12T15:15:53.818Z,37.69
2022-09-12T15:18:23.000Z,37.79
2022-09-12T15:20:52.846Z,37.60
2022-09-12T15:23:30.544Z,37.26
2022-09-12T15:25:58.334Z,37.89
2022-09-12T15:28:26.899Z,37.61
2022-09-12T15:30:57.119Z,37.89
2022-09-12T15:33:26.059Z,38.20
2022-09-12T15:35:54.723Z,37.82
2022-09-12T15:38:26.388Z,37.65
2022-09-12T15:40:57.103Z,37.93
2022-09-12T15:43:26.398Z,37.99
2022-09-12T15:45:54.224Z,37.37
2022-09-12T15:48:22.437Z,37.64
2022-09-12T15:50:50.270Z,37.36
2022-09-12T15:53:18.610Z,37.11
2022-09-12T15:55:46.902Z,37.71
2022-09-12T15:58:16.014Z,36.76
2022-09-12T16:00:43.836Z,37.70
2022-09-12T16:03:21.958Z,38.13
2022-09-12T16:05:50.611Z,38.81
2022-09-12T16:08:18.355Z,38.79
2022-09-12T16:10:48.827Z,38.94
2022-09-12T16:13:18.566Z,39.05
2022-09-12T16:15:46.350Z,39.33
2022-09-12T16:18:14.185Z,38.66
2022-09-12T16:20:42.762Z,39.71
2022-09-12T16:23:12.770Z,40.45
2022-09-12T16:25:42.062Z,41.29
2022-09-12T16:28:10.441Z,41.62
2022-09-12T16:30:41.256Z,42.19
2022-09-12T16:33:09.518Z,42.94
2022-09-12T16:35:37.256Z,43.36
2022-09-12T16:38:04.976Z,43.46
2022-09-12T16:40:32.941Z,43.93
2022-09-12T16:43:00.718Z,44.80
2022-09-12T16:45:29.023Z,44.82
2022-09-12T16:47:58.174Z,44.95
2022-09-12T16:50:25.932Z,45.57
2022-09-12T16:52:54.250Z,45.87
2022-09-12T16:55:22.302Z,46.82
2022-09-12T16:57:51.088Z,47.17
2022-09-12T17:00:19.072Z,47.24
2022-09-12T17:02:47.539Z,47.40
2022-09-12T17:05:17.300Z,47.84
2022-09-12T17:07:45.113Z,48.09
2022-09-12T17:10:13.530Z,48.24
2022-09-12T17:12:41.250Z,48.83
2022-09-12T17:15:09.992Z,48.70
2022-09-12T17:17:38.257Z,49.11
2022-09-12T17:20:06.802Z,49.45
2022-09-12T17:22:35.942Z,49.29
2022-09-12T17:25:04.373Z,49.65
2022-09-12T17:27:33.827Z,49.75
2022-09-12T17:30:02.177Z,50.00
2022-09-12T17:32:30.000Z,50.23
2022-09-12T17:34:58.488Z,50.23
2022-09-12T17:37:26.240Z,50.29
2022-09-12T17:39:55.405Z,50.48
2022-09-12T17:42:24.865Z,51.28
2022-09-12T17:44:52.867Z,51.45
2022-09-12T17:47:20.753Z,51.60
2022-09-12T17:49:48.569Z,51.78
2022-09-12T17:52:16.367Z,52.20
2022-09-12T17:54:44.531Z,51.69
2022-09-12T17:57:13.637Z,52.05
2022-09-12T17:59:41.408Z,52.41
2022-09-12T18:02:16.320Z,52.81
2022-09-12T18:04:46.344Z,52.88
2022-09-12T18:07:14.600Z,53.38
2022-09-12T18:09:43.354Z,52.63
2022-09-12T18:12:13.116Z,53.47
2022-09-12T18:14:41.662Z,53.65
2022-09-12T18:17:11.437Z,53.38
2022-09-12T18:19:39.483Z,53.21
2022-09-12T18:22:08.198Z,52.81
2022-09-12T18:24:36.537Z,53.40
2022-09-12T18:27:05.008Z,53.29
2022-09-12T18:29:34.128Z,53.02
2022-09-12T18:32:02.727Z,53.43
2022-09-12T18:34:30.433Z,53.27
2022-09-12T18:36:59.051Z,53.72
2022-09-12T18:39:27.977Z,53.69
2022-09-12T18:41:56.527Z,53.15
2022-09-12T18:44:24.301Z,53.28
2022-09-12T18:46:54.271Z,53.57
2022-09-12T18:49:22.035Z,53.53
2022-09-12T18:51:50.272Z,53.80
2022-09-12T18:54:18.651Z,53.64
2022-09-12T18:56:46.555Z,53.62
2022-09-12T18:59:15.375Z,53.58
2022-09-12T19:01:43.866Z,53.96
2022-09-12T19:04:16.751Z,53.75
2022-09-12T19:06:46.695Z,54.06
2022-09-12T19:09:17.327Z,53.90
2022-09-12T19:11:50.073Z,53.71
2022-09-12T19:14:19.673Z,53.76
2022-09-12T19:16:47.819Z,53.57
2022-09-12T19:19:16.935Z,53.74
2022-09-12T19:21:45.464Z,53.58
2022-09-12T19:24:14.369Z,54.05
2022-09-12T19:26:42.605Z,53.80
2022-09-12T19:29:12.242Z,53.70
2022-09-12T19:31:40.091Z,53.67
2022-09-12T19:34:09.259Z,54.01
2022-09-12T19:36:47.442Z,53.86
2022-09-12T19:39:16.847Z,54.02
2022-09-12T19:41:45.406Z,53.86
2022-09-12T19:44:13.162Z,54.23
2022-09-12T19:46:42.142Z,53.93
2022-09-12T19:49:11.581Z,54.33
2022-09-12T19:51:41.148Z,54.27
2022-09-12T19:54:09.575Z,54.02
2022-09-12T19:56:37.532Z,53.95
2022-09-12T19:59:05.701Z,54.08
2022-09-12T20:01:34.671Z,53.92
2022-09-12T20:04:03.630Z,54.16
2022-09-12T20:06:31.450Z,54.30
2022-09-12T20:09:00.790Z,54.01
2022-09-12T20:11:28.973Z,53.92
2022-09-12T20:13:56.708Z,54.34
2022-09-12T20:16:28.769Z,54.33
2022-09-12T20:18:58.978Z,54.03
2022-09-12T20:21:31.680Z,54.26
2022-09-12T20:24:06.270Z,53.97
2022-09-12T20:26:34.720Z,53.92
2022-09-12T20:29:02.811Z,53.94
2022-09-12T20:31:31.155Z,53.85
2022-09-12T20:33:59.769Z,53.84
2022-09-12T20:36:27.604Z,53.85
2022-09-12T20:38:57.824Z,54.18
2022-09-12T20:41:29.027Z,54.38
2022-09-12T20:43:57.835Z,54.15
2022-09-12T20:46:28.209Z,54.33
2022-09-12T20:48:56.296Z,54.36
2022-09-12T20:51:24.593Z,54.39
2022-09-12T20:53:55.066Z,54.91
2022-09-12T20:56:23.512Z,54.57
2022-09-12T20:58:53.211Z,54.65
2022-09-12T21:01:21.699Z,54.80
2022-09-12T21:03:50.041Z,54.80
2022-09-12T21:06:18.772Z,54.78
2022-09-12T21:08:47.372Z,54.79
2022-09-12T21:11:16.028Z,55.19
2022-09-12T21:13:43.966Z,54.98
2022-09-12T21:16:14.756Z,55.10
2022-09-12T21:18:43.309Z,55.32
2022-09-12T21:21:11.977Z,55.36
2022-09-12T21:23:40.191Z,55.21
2022-09-12T21:26:09.133Z,55.51
2022-09-12T21:28:37.341Z,55.41
2022-09-12T21:31:05.771Z,55.54
2022-09-12T21:33:34.894Z,55.73
2022-09-12T21:36:03.972Z,55.72
2022-09-12T21:38:32.558Z,55.89
2022-09-12T21:41:05.573Z,56.01
2022-09-12T21:43:33.726Z,55.86
2022-09-12T21:46:02.120Z,55.96
2022-09-12T21:48:30.392Z,55.91
2022-09-12T21:51:00.298Z,56.01
2022-09-12T21:53:28.385Z,56.12
2022-09-12T21:55:57.017Z,56.21
2022-09-12T21:58:24.769Z,56.35
2022-09-12T22:00:52.576Z,56.22
2022-09-12T22:03:20.805Z,56.58
2022-09-12T22:05:52.437Z,56.21
2022-09-12T22:08:22.062Z,56.43
2022-09-12T22:10:49.874Z,56.70
2022-09-12T22:13:17.831Z,56.34
2022-09-12T22:15:51.198Z,56.56
2022-09-12T22:18:19.175Z,56.55
2022-09-12T22:20:47.308Z,56.46
2022-09-12T22:23:33.219Z,56.82
2022-09-12T22:26:04.648Z,56.80
2022-09-12T22:28:32.729Z,56.83
2022-09-12T22:31:01.313Z,57.17
2022-09-12T22:33:29.184Z,57.09
2022-09-12T22:35:56.891Z,57.20
2022-09-12T22:38:26.528Z,57.01
2022-09-12T22:40:55.121Z,57.13
2022-09-12T22:43:24.463Z,57.10
2022-09-12T22:45:52.734Z,57.14
2022-09-12T22:48:20.906Z,56.93
2022-09-12T22:50:48.629Z,57.14
2022-09-12T22:53:16.885Z,57.07
2022-09-12T22:55:45.408Z,57.34
2022-09-12T22:58:13.177Z,57.51
2022-09-12T23:00:47.761Z,57.11
2022-09-12T23:03:15.953Z,57.54
2022-09-12T23:05:43.982Z,57.60
2022-09-12T23:08:12.257Z,57.67
2022-09-12T23:10:40.614Z,58.14
2022-09-12T23:13:08.876Z,57.88
2022-09-12T23:15:37.101Z,57.67
2022-09-12T23:18:06.760Z,57.99
2022-09-12T23:20:34.501Z,57.65
2022-09-12T23:23:02.910Z,57.64
2022-09-12T23:25:30.928Z,57.95
2022-09-12T23:27:58.918Z,57.91
2022-09-12T23:30:26.679Z,57.74
2022-09-12T23:32:54.409Z,58.08
2022-09-12T23:35:24.109Z,57.77
2022-09-12T23:37:51.880Z,58.00
2022-09-12T23:40:20.405Z,57.91
2022-09-12T23:42:48.192Z,57.87
2022-09-12T23:45:15.987Z,57.68
2022-09-12T23:47:44.356Z,57.71
2022-09-12T23:50:12.140Z,57.86
2022-09-12T23:52:41.773Z,57.97
2022-09-12T23:55:10.499Z,57.99
2022-09-12T23:57:39.395Z,58.06
